sensor_id;sensor_type;location;lat;lon;timestamp;P1;durP1;ratioP1;P2;durP2;ratioP2
29414;SDS011;20303;48.302;11.914;2024-02-16T00:07:10;7.75;;;4.20;;
29414;SDS011;20303;48.302;11.914;2024-02-16T00:17:11;8.80;;;4.22;;
29414;SDS011;20303;48.302;11.914;2024-02-16T00:27:12;6.60;;;3.63;;
29414;SDS011;20303;48.302;11.914;2024-02-16T00:37:14;9.68;;;3.92;;
29414;SDS011;20303;48.302;11.914;2024-02-16T00:47:15;6.18;;;3.42;;
29414;SDS011;20303;48.302;11.914;2024-02-16T00:57:16;4.97;;;2.88;;
29414;SDS011;20303;48.302;11.914;2024-02-16T01:07:17;8.88;;;3.58;;
29414;SDS011;20303;48.302;11.914;2024-02-16T01:17:18;5.78;;;3.05;;
29414;SDS011;20303;48.302;11.914;2024-02-16T01:27:19;7.25;;;3.30;;
29414;SDS011;20303;48.302;11.914;2024-02-16T01:37:21;7.07;;;2.90;;
29414;SDS011;20303;48.302;11.914;2024-02-16T01:47:22;4.60;;;2.70;;
29414;SDS011;20303;48.302;11.914;2024-02-16T01:57:23;4.88;;;2.80;;
29414;SDS011;20303;48.302;11.914;2024-02-16T02:07:25;5.90;;;3.22;;
29414;SDS011;20303;48.302;11.914;2024-02-16T02:17:27;5.93;;;2.72;;
29414;SDS011;20303;48.302;11.914;2024-02-16T02:27:28;3.97;;;2.58;;
29414;SDS011;20303;48.302;11.914;2024-02-16T02:37:29;4.45;;;2.53;;
29414;SDS011;20303;48.302;11.914;2024-02-16T02:47:30;3.55;;;2.30;;
29414;SDS011;20303;48.302;11.914;2024-02-16T02:57:32;4.80;;;2.60;;
29414;SDS011;20303;48.302;11.914;2024-02-16T03:07:33;4.03;;;2.50;;
29414;SDS011;20303;48.302;11.914;2024-02-16T03:17:34;7.05;;;2.58;;
29414;SDS011;20303;48.302;11.914;2024-02-16T03:27:35;2.95;;;2.30;;
29414;SDS011;20303;48.302;11.914;2024-02-16T03:37:37;4.40;;;2.22;;
29414;SDS011;20303;48.302;11.914;2024-02-16T03:47:39;4.70;;;2.28;;
29414;SDS011;20303;48.302;11.914;2024-02-16T03:57:41;4.93;;;2.35;;
29414;SDS011;20303;48.302;11.914;2024-02-16T04:07:42;7.55;;;2.60;;
29414;SDS011;20303;48.302;11.914;2024-02-16T04:17:43;3.08;;;2.20;;
29414;SDS011;20303;48.302;11.914;2024-02-16T04:27:44;6.93;;;2.25;;
29414;SDS011;20303;48.302;11.914;2024-02-16T04:37:46;5.15;;;2.70;;
29414;SDS011;20303;48.302;11.914;2024-02-16T04:47:47;3.58;;;2.20;;
29414;SDS011;20303;48.302;11.914;2024-02-16T04:57:48;3.83;;;2.30;;
29414;SDS011;20303;48.302;11.914;2024-02-16T05:07:50;2.95;;;2.08;;
29414;SDS011;20303;48.302;11.914;2024-02-16T05:17:51;4.30;;;2.40;;
29414;SDS011;20303;48.302;11.914;2024-02-16T05:27:52;6.28;;;2.30;;
29414;SDS011;20303;48.302;11.914;2024-02-16T05:37:53;4.03;;;2.40;;
29414;SDS011;20303;48.302;11.914;2024-02-16T05:47:55;6.32;;;2.60;;
29414;SDS011;20303;48.302;11.914;2024-02-16T05:57:56;4.22;;;2.25;;
29414;SDS011;20303;48.302;11.914;2024-02-16T06:07:57;4.18;;;1.80;;
29414;SDS011;20303;48.302;11.914;2024-02-16T06:18:01;3.80;;;1.98;;
29414;SDS011;20303;48.302;11.914;2024-02-16T06:28:03;3.40;;;2.00;;
29414;SDS011;20303;48.302;11.914;2024-02-16T06:38:04;5.63;;;2.30;;
29414;SDS011;20303;48.302;11.914;2024-02-16T06:48:05;4.68;;;2.25;;
29414;SDS011;20303;48.302;11.914;2024-02-16T06:58:07;5.57;;;2.78;;
29414;SDS011;20303;48.302;11.914;2024-02-16T07:08:08;6.00;;;2.40;;
29414;SDS011;20303;48.302;11.914;2024-02-16T07:18:09;6.63;;;2.10;;
29414;SDS011;20303;48.302;11.914;2024-02-16T07:28:10;7.47;;;2.40;;
29414;SDS011;20303;48.302;11.914;2024-02-16T07:38:11;4.38;;;2.30;;
29414;SDS011;20303;48.302;11.914;2024-02-16T07:48:12;10.18;;;2.38;;
29414;SDS011;20303;48.302;11.914;2024-02-16T07:58:13;3.95;;;2.20;;
29414;SDS011;20303;48.302;11.914;2024-02-16T08:08:14;5.97;;;2.35;;
29414;SDS011;20303;48.302;11.914;2024-02-16T08:18:15;4.97;;;2.20;;
29414;SDS011;20303;48.302;11.914;2024-02-16T08:28:17;4.10;;;2.25;;
29414;SDS011;20303;48.302;11.914;2024-02-16T08:38:18;5.78;;;2.88;;
29414;SDS011;20303;48.302;11.914;2024-02-16T08:48:19;6.53;;;2.10;;
29414;SDS011;20303;48.302;11.914;2024-02-16T08:58:21;3.22;;;2.05;;
29414;SDS011;20303;48.302;11.914;2024-02-16T09:08:22;3.47;;;2.03;;
29414;SDS011;20303;48.302;11.914;2024-02-16T09:18:23;4.15;;;2.10;;
29414;SDS011;20303;48.302;11.914;2024-02-16T09:28:24;3.95;;;2.20;;
29414;SDS011;20303;48.302;11.914;2024-02-16T09:38:28;4.53;;;2.13;;
29414;SDS011;20303;48.302;11.914;2024-02-16T09:48:29;5.40;;;2.25;;
29414;SDS011;20303;48.302;11.914;2024-02-16T09:58:30;8.20;;;2.30;;
29414;SDS011;20303;48.302;11.914;2024-02-16T10:08:31;4.15;;;2.22;;
29414;SDS011;20303;48.302;11.914;2024-02-16T10:18:33;3.35;;;2.10;;
29414;SDS011;20303;48.302;11.914;2024-02-16T10:28:34;5.55;;;2.47;;
29414;SDS011;20303;48.302;11.914;2024-02-16T10:38:35;3.83;;;2.13;;
29414;SDS011;20303;48.302;11.914;2024-02-16T10:48:36;3.83;;;1.63;;
29414;SDS011;20303;48.302;11.914;2024-02-16T10:58:37;5.03;;;2.15;;
29414;SDS011;20303;48.302;11.914;2024-02-16T11:08:40;3.20;;;1.85;;
29414;SDS011;20303;48.302;11.914;2024-02-16T11:18:41;3.80;;;1.80;;
29414;SDS011;20303;48.302;11.914;2024-02-16T11:28:49;5.03;;;2.00;;
29414;SDS011;20303;48.302;11.914;2024-02-16T11:38:51;3.40;;;2.00;;
29414;SDS011;20303;48.302;11.914;2024-02-16T11:48:52;5.18;;;1.77;;
29414;SDS011;20303;48.302;11.914;2024-02-16T11:58:53;3.25;;;1.77;;
29414;SDS011;20303;48.302;11.914;2024-02-16T12:08:57;6.57;;;1.90;;
29414;SDS011;20303;48.302;11.914;2024-02-16T12:19:04;2.65;;;1.50;;
29414;SDS011;20303;48.302;11.914;2024-02-16T12:29:05;3.50;;;1.88;;
29414;SDS011;20303;48.302;11.914;2024-02-16T12:39:07;4.10;;;1.60;;
29414;SDS011;20303;48.302;11.914;2024-02-16T12:49:12;2.65;;;1.40;;
29414;SDS011;20303;48.302;11.914;2024-02-16T12:59:13;3.22;;;1.73;;
29414;SDS011;20303;48.302;11.914;2024-02-16T13:09:14;2.78;;;1.58;;
29414;SDS011;20303;48.302;11.914;2024-02-16T13:19:15;4.25;;;1.52;;
29414;SDS011;20303;48.302;11.914;2024-02-16T13:29:18;2.15;;;1.35;;
29414;SDS011;20303;48.302;11.914;2024-02-16T13:39:19;17.48;;;7.85;;
29414;SDS011;20303;48.302;11.914;2024-02-16T13:49:21;35.63;;;16.58;;
29414;SDS011;20303;48.302;11.914;2024-02-16T13:59:23;33.65;;;14.57;;
29414;SDS011;20303;48.302;11.914;2024-02-16T14:09:24;22.77;;;9.38;;
29414;SDS011;20303;48.302;11.914;2024-02-16T14:19:26;16.20;;;7.68;;
29414;SDS011;20303;48.302;11.914;2024-02-16T14:29:27;21.60;;;9.52;;
29414;SDS011;20303;48.302;11.914;2024-02-16T14:39:29;19.95;;;7.22;;
29414;SDS011;20303;48.302;11.914;2024-02-16T14:49:30;5.32;;;2.83;;
29414;SDS011;20303;48.302;11.914;2024-02-16T14:59:31;8.88;;;4.13;;
29414;SDS011;20303;48.302;11.914;2024-02-16T15:09:32;12.52;;;4.55;;
29414;SDS011;20303;48.302;11.914;2024-02-16T15:19:33;16.45;;;4.35;;
29414;SDS011;20303;48.302;11.914;2024-02-16T15:29:34;16.02;;;4.22;;
29414;SDS011;20303;48.302;11.914;2024-02-16T15:39:36;15.60;;;4.72;;
29414;SDS011;20303;48.302;11.914;2024-02-16T15:49:37;11.10;;;4.10;;
29414;SDS011;20303;48.302;11.914;2024-02-16T15:59:38;14.90;;;4.32;;
29414;SDS011;20303;48.302;11.914;2024-02-16T16:09:39;14.05;;;4.75;;
29414;SDS011;20303;48.302;11.914;2024-02-16T16:19:40;14.32;;;4.65;;
29414;SDS011;20303;48.302;11.914;2024-02-16T16:29:41;19.10;;;5.50;;
29414;SDS011;20303;48.302;11.914;2024-02-16T16:39:44;18.92;;;5.13;;
29414;SDS011;20303;48.302;11.914;2024-02-16T16:49:45;13.10;;;4.18;;
29414;SDS011;20303;48.302;11.914;2024-02-16T16:59:46;18.65;;;4.55;;
29414;SDS011;20303;48.302;11.914;2024-02-16T17:09:47;19.17;;;4.55;;
29414;SDS011;20303;48.302;11.914;2024-02-16T17:19:52;13.85;;;4.63;;
29414;SDS011;20303;48.302;11.914;2024-02-16T17:29:53;10.80;;;4.38;;
29414;SDS011;20303;48.302;11.914;2024-02-16T17:39:54;11.18;;;3.80;;
29414;SDS011;20303;48.302;11.914;2024-02-16T17:49:55;14.93;;;4.00;;
29414;SDS011;20303;48.302;11.914;2024-02-16T17:59:56;14.02;;;4.30;;
29414;SDS011;20303;48.302;11.914;2024-02-16T18:09:57;12.98;;;3.70;;
29414;SDS011;20303;48.302;11.914;2024-02-16T18:19:58;10.00;;;3.95;;
29414;SDS011;20303;48.302;11.914;2024-02-16T18:29:59;11.18;;;4.00;;
29414;SDS011;20303;48.302;11.914;2024-02-16T18:40:01;11.20;;;3.88;;
29414;SDS011;20303;48.302;11.914;2024-02-16T18:50:03;10.85;;;3.85;;
29414;SDS011;20303;48.302;11.914;2024-02-16T19:00:05;8.88;;;3.67;;
29414;SDS011;20303;48.302;11.914;2024-02-16T19:10:07;9.23;;;3.47;;
29414;SDS011;20303;48.302;11.914;2024-02-16T19:20:09;12.50;;;3.78;;
29414;SDS011;20303;48.302;11.914;2024-02-16T19:30:10;8.07;;;3.50;;
29414;SDS011;20303;48.302;11.914;2024-02-16T19:40:11;10.60;;;3.55;;
29414;SDS011;20303;48.302;11.914;2024-02-16T19:50:12;11.32;;;3.42;;
29414;SDS011;20303;48.302;11.914;2024-02-16T20:00:14;6.65;;;3.35;;
29414;SDS011;20303;48.302;11.914;2024-02-16T20:10:15;9.75;;;2.97;;
29414;SDS011;20303;48.302;11.914;2024-02-16T20:20:16;5.72;;;2.95;;
29414;SDS011;20303;48.302;11.914;2024-02-16T20:30:19;10.60;;;2.88;;
29414;SDS011;20303;48.302;11.914;2024-02-16T20:40:20;8.40;;;2.88;;
29414;SDS011;20303;48.302;11.914;2024-02-16T20:50:22;6.40;;;2.80;;
29414;SDS011;20303;48.302;11.914;2024-02-16T21:00:24;6.40;;;2.90;;
29414;SDS011;20303;48.302;11.914;2024-02-16T21:10:25;7.10;;;2.70;;
29414;SDS011;20303;48.302;11.914;2024-02-16T21:20:27;7.32;;;3.05;;
29414;SDS011;20303;48.302;11.914;2024-02-16T21:30:28;5.47;;;2.88;;
29414;SDS011;20303;48.302;11.914;2024-02-16T21:40:29;9.73;;;2.70;;
29414;SDS011;20303;48.302;11.914;2024-02-16T21:50:34;5.28;;;2.50;;
29414;SDS011;20303;48.302;11.914;2024-02-16T22:00:35;8.60;;;2.63;;
29414;SDS011;20303;48.302;11.914;2024-02-16T22:10:36;3.83;;;2.10;;
29414;SDS011;20303;48.302;11.914;2024-02-16T22:20:39;5.53;;;2.47;;
29414;SDS011;20303;48.302;11.914;2024-02-16T22:30:40;7.25;;;2.13;;
29414;SDS011;20303;48.302;11.914;2024-02-16T22:40:41;6.38;;;2.55;;
29414;SDS011;20303;48.302;11.914;2024-02-16T22:50:42;4.20;;;2.20;;
29414;SDS011;20303;48.302;11.914;2024-02-16T23:00:43;5.80;;;2.47;;
29414;SDS011;20303;48.302;11.914;2024-02-16T23:10:45;4.18;;;2.10;;
29414;SDS011;20303;48.302;11.914;2024-02-16T23:20:46;4.90;;;2.45;;
29414;SDS011;20303;48.302;11.914;2024-02-16T23:30:47;4.97;;;2.05;;
29414;SDS011;20303;48.302;11.914;2024-02-16T23:40:48;4.40;;;2.58;;
29414;SDS011;20303;48.302;11.914;2024-02-16T23:50:49;4.28;;;2.13;;
